Iguai, Brazil
Current Conditions -  °F | °C
As of 10:00 AM on Saturday 25 Oct 2014 (Local Time) from SBQV Reporting Station
Broken Clouds Broken Clouds  
Wind Chill: 77°   Ceiling: 1600
Heat Index: 79°   Visibility: 6mi
Dew Point: 61°   Wind: 9mph
Humidity: 57%   Direction: 40°NE
Pressure: 30.12"   Gusts: NA
Location:  14.76°S, 40.09°W
Report Text: SBQV 251300Z 04008KT 9999 BKN016 25/16 Q1020
Loading
Personal Weather Stations






























Interactive Weather Map
Tropical Storm Tracking
New forecast layout! Learn more

10-Day Weather Forecast

Advertisements
Track Severe Weather on mobile